Ivory Coast — WDC4732 — position and weather

sailwx.info

Track history (hours):
 
Tides and Currents Weather Stations Pressure Air Temp Water Temp Dewpoint Dewpoint Depression Visibility Wind Speed Wind Dir Waves Ship Positions

Ivory Coast

Owner: Dann Marine Towing, LC, Chesapeake City, MD. More information available from US FCC via Universal Licensing System and Coast Guard Vessel Documentation Center.

Last reported at 2017-Oct-19 23:29 UTC. Time now 2017-Oct-19 23:33 UTC.
Position N 38°08' W 075°03'.

Length 33 m; draft 5 m.

Type: Tug. MMSI: 367029690.

Date/timePositionNaut miles runAvg speedWind from/ knotsBaromVisibWave heightAir tempDewpointWater temp
2017-Oct-19 23:29N 38°08' W 075°03'232 6.9
2017-Oct-18 14:00N 34°27' W 076°32'4 8.9
2017-Oct-18 13:30N 34°31' W 076°35'5 9.2
2017-Oct-18 13:00N 34°35' W 076°36'4 8.4
2017-Oct-18 12:30N 34°40' W 076°37'2 3.5
2017-Oct-18 12:00N 34°39' W 076°39'1 2.3
2017-Oct-18 11:30N 34°38' W 076°38'2 3.3
2017-Oct-18 11:00N 34°38' W 076°36'2 3.2
2017-Oct-18 10:30N 34°38' W 076°35'1 1.9
2017-Oct-18 10:00N 34°39' W 076°35'2 3.3
2017-Oct-18 09:30N 34°39' W 076°37'2 3.2
2017-Oct-18 09:00N 34°40' W 076°39'1 2.8
2017-Oct-18 08:30N 34°39' W 076°40'2 3.4
2017-Oct-18 08:00N 34°40' W 076°42'2 3.4
2017-Oct-18 07:30N 34°40' W 076°44'2 3.4
2017-Oct-18 07:00N 34°40' W 076°46'1 2.3
2017-Oct-18 06:30N 34°40' W 076°45'2 3.3
2017-Oct-18 06:00N 34°39' W 076°43'2 3.3
2017-Oct-18 05:30N 34°39' W 076°41'2 3.1
2017-Oct-18 05:00N 34°39' W 076°40'2 3.2
2017-Oct-18 04:30N 34°38' W 076°38'2 3.2
2017-Oct-18 04:00N 34°38' W 076°36'1 2.6
2017-Oct-18 03:30N 34°39' W 076°34'2 3.3
2017-Oct-18 03:00N 34°39' W 076°36'2 3.3
2017-Oct-18 02:30N 34°40' W 076°38'1 2.6
2017-Oct-18 02:00N 34°39' W 076°39'1 2.9
2017-Oct-18 01:30N 34°38' W 076°38'2 3.1
2017-Oct-18 01:00N 34°38' W 076°36'2 3.2
2017-Oct-18 00:30N 34°38' W 076°34'2 3.0
2017-Oct-18 00:00N 34°39' W 076°35'2 3.4
2017-Oct-17 23:30N 34°40' W 076°37'2 3.0
2017-Oct-17 23:00N 34°40' W 076°39'1 2.3
2017-Oct-17 22:30N 34°39' W 076°38'2 3.4
2017-Oct-17 22:00N 34°38' W 076°36'2 3.3
2017-Oct-17 21:30N 34°38' W 076°34'2 3.3
2017-Oct-17 21:01N 34°39' W 076°36'2 3.2
2017-Oct-17 20:30N 34°40' W 076°38'1 2.8
2017-Oct-17 20:01N 34°40' W 076°39'2 3.4
2017-Oct-17 19:30N 34°39' W 076°38'2 3.4
2017-Oct-17 19:00N 34°38' W 076°35'1 1.5
2017-Oct-17 18:30N 34°39' W 076°35'2 3.1
2017-Oct-17 18:00N 34°40' W 076°37'1 2.9
2017-Oct-17 17:30N 34°40' W 076°39'1 2.6
2017-Oct-17 17:00N 34°39' W 076°37'1 2.3
2017-Oct-17 16:30N 34°40' W 076°36'2 3.1
2017-Oct-17 16:00N 34°40' W 076°38'1 2.7
2017-Oct-17 15:30N 34°39' W 076°39'1 2.3
2017-Oct-17 15:00N 34°38' W 076°38'3 5.7
2017-Oct-17 14:30N 34°39' W 076°35'1 2.9
2017-Oct-17 14:00N 34°40' W 076°36'2 3.4
2017-Oct-17 13:30N 34°40' W 076°38'1 2.7
2017-Oct-17 13:00N 34°39' W 076°39'1 2.7
2017-Oct-17 12:30N 34°38' W 076°38'2 3.1
2017-Oct-17 12:00N 34°38' W 076°36'2 3.5
2017-Oct-17 11:30N 34°38' W 076°34'1 2.6
2017-Oct-17 11:00N 34°39' W 076°35'2 3.3
2017-Oct-17 10:30N 34°40' W 076°37'2 3.1
2017-Oct-17 10:00N 34°40' W 076°38'1 2.2
2017-Oct-17 09:30N 34°39' W 076°39'2 3.3
2017-Oct-17 09:00N 34°38' W 076°37'2 3.4
2017-Oct-17 08:30N 34°38' W 076°35'1 2.3
2017-Oct-17 08:00N 34°39' W 076°35'2 3.1
2017-Oct-17 07:30N 34°39' W 076°36'1 3.0
2017-Oct-17 07:00N 34°40' W 076°38'1 2.6
2017-Oct-17 06:30N 34°39' W 076°39'2 3.5
2017-Oct-17 06:00N 34°38' W 076°37'2 3.4
2017-Oct-17 05:30N 34°38' W 076°35'1 2.3
2017-Oct-17 05:00N 34°39' W 076°35'2 3.1
2017-Oct-17 04:30N 34°40' W 076°37'2 3.2
2017-Oct-17 04:00N 34°40' W 076°39'1 2.2
2017-Oct-17 03:30N 34°39' W 076°38'2 3.2
2017-Oct-17 03:00N 34°38' W 076°37'2 3.5
2017-Oct-17 02:30N 34°38' W 076°35'1 2.6
2017-Oct-17 02:00N 34°39' W 076°35'2 3.3
2017-Oct-17 01:30N 34°40' W 076°36'2 3.4
2017-Oct-17 01:00N 34°40' W 076°38'1 2.3
2017-Oct-17 00:30N 34°39' W 076°39'1 2.9
2017-Oct-17 00:00N 34°39' W 076°37'2 3.0
2017-Oct-16 23:30N 34°38' W 076°35'2 3.0
2017-Oct-16 23:00N 34°38' W 076°33'2 3.3
2017-Oct-16 22:30N 34°39' W 076°35'2 3.3
2017-Oct-16 22:00N 34°40' W 076°37'1 3.0
2017-Oct-16 21:30N 34°40' W 076°39'1 2.3
2017-Oct-16 21:00N 34°39' W 076°38'2 3.3
2017-Oct-16 20:30N 34°39' W 076°36'1 2.7
2017-Oct-16 20:00N 34°40' W 076°37'1 2.8
2017-Oct-16 19:30N 34°39' W 076°39'1 2.4
2017-Oct-16 19:00N 34°39' W 076°38'2 3.2
2017-Oct-16 18:30N 34°38' W 076°36'1 1.9
2017-Oct-16 18:00N 34°39' W 076°35'2 3.2
2017-Oct-16 17:30N 34°39' W 076°37'1 2.9
2017-Oct-16 17:00N 34°39' W 076°38'2 3.1
2017-Oct-16 16:30N 34°38' W 076°36'1 1.5
2017-Oct-16 16:00N 34°39' W 076°36'2 3.8
2017-Oct-16 15:30N 34°38' W 076°38'2 4.6
2017-Oct-16 15:00N 34°36' W 076°39'4 8.8
2017-Oct-16 14:30N 34°33' W 076°43'  
2017-Oct-14 00:59N 26°26' W 079°52'510.3
2017-Oct-14 00:30N 26°21' W 079°53'5 9.8
2017-Oct-14 00:00N 26°16' W 079°55'6 9.7
2017-Oct-13 23:23N 26°11' W 079°57'3 8.9
2017-Oct-13 23:00N 26°07' W 079°58'4 8.0
2017-Oct-13 22:30N 26°04' W 079°60'4 7.7
2017-Oct-13 22:00N 26°00' W 080°01'510.1
2017-Oct-13 21:30N 25°55' W 080°02'510.2
2017-Oct-13 21:00N 25°50' W 080°02'510.4
2017-Oct-13 20:31N 25°45' W 080°02'510.3
2017-Oct-13 20:00N 25°40' W 080°03'510.5
2017-Oct-13 19:30N 25°34' W 080°03'510.4
2017-Oct-13 19:00N 25°29' W 080°03'510.7
2017-Oct-13 18:30N 25°24' W 080°03'610.3
2017-Oct-13 17:57N 25°18' W 080°04'510.4
2017-Oct-13 17:30N 25°14' W 080°05'510.4
2017-Oct-13 17:00N 25°09' W 080°07'510.5
2017-Oct-13 16:30N 25°04' W 080°10'510.6
2017-Oct-13 16:00N 25°00' W 080°13'510.5
2017-Oct-13 15:30N 24°56' W 080°17'510.2
2017-Oct-13 15:00N 24°52' W 080°21'5 9.9
2017-Oct-13 14:31N 24°49' W 080°25'5 9.7
2017-Oct-13 14:00N 24°46' W 080°29'209 4.8
2017-Oct-11 18:38N 27°41' W 082°35'1 8.2
2017-Oct-11 18:30N 27°41' W 082°34'4 8.4
2017-Oct-11 18:00N 27°45' W 082°32'4 7.3
2017-Oct-11 17:30N 27°48' W 082°29'4 7.4
2017-Oct-11 17:00N 27°51' W 082°27'5 0.3
2017-Oct-10 23:56N 27°56' W 082°27'0 0.0
2017-Oct-10 23:29N 27°56' W 082°27'0 0.0
2017-Oct-10 22:59N 27°56' W 082°27'0 0.0
2017-Oct-10 22:29N 27°56' W 082°27'0 0.0
2017-Oct-10 21:59N 27°56' W 082°27'0 0.1
2017-Oct-10 21:29N 27°56' W 082°27'0 0.0
2017-Oct-10 20:59N 27°56' W 082°27'0 0.0
2017-Oct-10 20:29N 27°56' W 082°27'0 0.0
2017-Oct-10 19:59N 27°56' W 082°27'0 0.0
2017-Oct-10 19:29N 27°56' W 082°27'0 0.0
2017-Oct-10 18:59N 27°56' W 082°27'0 0.0
2017-Oct-10 18:29N 27°56' W 082°27'0 0.0
2017-Oct-10 17:59N 27°56' W 082°27'0 0.0
2017-Oct-10 17:29N 27°56' W 082°27'0 0.0
2017-Oct-10 16:59N 27°56' W 082°27'0 0.0
2017-Oct-10 16:29N 27°56' W 082°27'0 0.0
2017-Oct-10 15:59N 27°56' W 082°27'0 0.0
2017-Oct-10 15:29N 27°56' W 082°27'0 0.5
2017-Oct-10 15:00N 27°57' W 082°27'0 0.0
2017-Oct-10 14:00N 27°57' W 082°27'0 0.0
2017-Oct-10 13:30N 27°57' W 082°27'0 0.0
2017-Oct-10 13:00N 27°57' W 082°27'0 0.0
2017-Oct-10 12:30N 27°57' W 082°27'0 0.0
2017-Oct-10 12:00N 27°57' W 082°27'0 0.0
2017-Oct-10 11:30N 27°57' W 082°27'0 0.0
2017-Oct-10 11:00N 27°57' W 082°27'0 0.0
2017-Oct-10 10:30N 27°57' W 082°27'0 0.0
2017-Oct-10 10:00N 27°57' W 082°27'0 0.0
2017-Oct-10 09:30N 27°57' W 082°27'0 0.0
2017-Oct-10 09:00N 27°57' W 082°27'0 0.0
2017-Oct-10 08:30N 27°57' W 082°27'0 0.0
2017-Oct-10 08:00N 27°57' W 082°27'0 0.0
2017-Oct-10 07:30N 27°57' W 082°27'0 0.0
2017-Oct-10 07:00N 27°57' W 082°27'0 0.0
2017-Oct-10 06:30N 27°57' W 082°27'0 0.0
2017-Oct-10 06:00N 27°57' W 082°27'0 0.0
2017-Oct-10 05:30N 27°57' W 082°27'0 0.0
2017-Oct-10 05:00N 27°57' W 082°27'0 0.0
2017-Oct-10 04:30N 27°57' W 082°27'0 0.0
2017-Oct-10 04:00N 27°57' W 082°27'0 0.0
2017-Oct-10 03:30N 27°57' W 082°27'0 0.0
2017-Oct-10 03:00N 27°57' W 082°27'0 0.0
2017-Oct-10 02:30N 27°57' W 082°27'0 0.0
2017-Oct-10 02:00N 27°57' W 082°27'0 0.0
2017-Oct-10 01:30N 27°57' W 082°27'0 0.0
2017-Oct-10 01:00N 27°57' W 082°27'0 0.0
2017-Oct-10 00:30N 27°57' W 082°27'0 0.0
2017-Oct-10 00:00N 27°57' W 082°27'0 0.0
2017-Oct-09 23:30N 27°57' W 082°27'  
Track history (hours):
 
Tides and Currents Weather Stations Pressure Air Temp Water Temp Dewpoint Dewpoint Depression Visibility Wind Speed Wind Dir Waves Ship Positions

Ivory Coast

Owner: Dann Marine Towing, LC, Chesapeake City, MD. More information available from US FCC via Universal Licensing System and Coast Guard Vessel Documentation Center.

Last reported at 2017-Oct-19 23:29 UTC. Time now 2017-Oct-19 23:33 UTC.
Position N 38°08' W 075°03'.

Length 33 m; draft 5 m.

Type: Tug. MMSI: 367029690.

Date/timePositionNaut miles runAvg speedWind from/ knotsBaromVisibWave heightAir tempDewpointWater temp
2017-Oct-19 23:29N 38°08' W 075°03'232 6.9
2017-Oct-18 14:00N 34°27' W 076°32'4 8.9
2017-Oct-18 13:30N 34°31' W 076°35'5 9.2
2017-Oct-18 13:00N 34°35' W 076°36'4 8.4
2017-Oct-18 12:30N 34°40' W 076°37'2 3.5
2017-Oct-18 12:00N 34°39' W 076°39'1 2.3
2017-Oct-18 11:30N 34°38' W 076°38'2 3.3
2017-Oct-18 11:00N 34°38' W 076°36'2 3.2
2017-Oct-18 10:30N 34°38' W 076°35'1 1.9
2017-Oct-18 10:00N 34°39' W 076°35'2 3.3
2017-Oct-18 09:30N 34°39' W 076°37'2 3.2
2017-Oct-18 09:00N 34°40' W 076°39'1 2.8
2017-Oct-18 08:30N 34°39' W 076°40'2 3.4
2017-Oct-18 08:00N 34°40' W 076°42'2 3.4
2017-Oct-18 07:30N 34°40' W 076°44'2 3.4
2017-Oct-18 07:00N 34°40' W 076°46'1 2.3
2017-Oct-18 06:30N 34°40' W 076°45'2 3.3
2017-Oct-18 06:00N 34°39' W 076°43'2 3.3
2017-Oct-18 05:30N 34°39' W 076°41'2 3.1
2017-Oct-18 05:00N 34°39' W 076°40'2 3.2
2017-Oct-18 04:30N 34°38' W 076°38'2 3.2
2017-Oct-18 04:00N 34°38' W 076°36'1 2.6
2017-Oct-18 03:30N 34°39' W 076°34'2 3.3
2017-Oct-18 03:00N 34°39' W 076°36'2 3.3
2017-Oct-18 02:30N 34°40' W 076°38'1 2.6
2017-Oct-18 02:00N 34°39' W 076°39'1 2.9
2017-Oct-18 01:30N 34°38' W 076°38'2 3.1
2017-Oct-18 01:00N 34°38' W 076°36'2 3.2
2017-Oct-18 00:30N 34°38' W 076°34'2 3.0
2017-Oct-18 00:00N 34°39' W 076°35'2 3.4
2017-Oct-17 23:30N 34°40' W 076°37'2 3.0
2017-Oct-17 23:00N 34°40' W 076°39'1 2.3
2017-Oct-17 22:30N 34°39' W 076°38'2 3.4
2017-Oct-17 22:00N 34°38' W 076°36'2 3.3
2017-Oct-17 21:30N 34°38' W 076°34'2 3.3
2017-Oct-17 21:01N 34°39' W 076°36'2 3.2
2017-Oct-17 20:30N 34°40' W 076°38'1 2.8
2017-Oct-17 20:01N 34°40' W 076°39'2 3.4
2017-Oct-17 19:30N 34°39' W 076°38'2 3.4
2017-Oct-17 19:00N 34°38' W 076°35'1 1.5
2017-Oct-17 18:30N 34°39' W 076°35'2 3.1
2017-Oct-17 18:00N 34°40' W 076°37'1 2.9
2017-Oct-17 17:30N 34°40' W 076°39'1 2.6
2017-Oct-17 17:00N 34°39' W 076°37'1 2.3
2017-Oct-17 16:30N 34°40' W 076°36'2 3.1
2017-Oct-17 16:00N 34°40' W 076°38'1 2.7
2017-Oct-17 15:30N 34°39' W 076°39'1 2.3
2017-Oct-17 15:00N 34°38' W 076°38'3 5.7
2017-Oct-17 14:30N 34°39' W 076°35'1 2.9
2017-Oct-17 14:00N 34°40' W 076°36'2 3.4
2017-Oct-17 13:30N 34°40' W 076°38'1 2.7
2017-Oct-17 13:00N 34°39' W 076°39'1 2.7
2017-Oct-17 12:30N 34°38' W 076°38'2 3.1
2017-Oct-17 12:00N 34°38' W 076°36'2 3.5
2017-Oct-17 11:30N 34°38' W 076°34'1 2.6
2017-Oct-17 11:00N 34°39' W 076°35'2 3.3
2017-Oct-17 10:30N 34°40' W 076°37'2 3.1
2017-Oct-17 10:00N 34°40' W 076°38'1 2.2
2017-Oct-17 09:30N 34°39' W 076°39'2 3.3
2017-Oct-17 09:00N 34°38' W 076°37'2 3.4
2017-Oct-17 08:30N 34°38' W 076°35'1 2.3
2017-Oct-17 08:00N 34°39' W 076°35'2 3.1
2017-Oct-17 07:30N 34°39' W 076°36'1 3.0
2017-Oct-17 07:00N 34°40' W 076°38'1 2.6
2017-Oct-17 06:30N 34°39' W 076°39'2 3.5
2017-Oct-17 06:00N 34°38' W 076°37'2 3.4
2017-Oct-17 05:30N 34°38' W 076°35'1 2.3
2017-Oct-17 05:00N 34°39' W 076°35'2 3.1
2017-Oct-17 04:30N 34°40' W 076°37'2 3.2
2017-Oct-17 04:00N 34°40' W 076°39'1 2.2
2017-Oct-17 03:30N 34°39' W 076°38'2 3.2
2017-Oct-17 03:00N 34°38' W 076°37'2 3.5
2017-Oct-17 02:30N 34°38' W 076°35'1 2.6
2017-Oct-17 02:00N 34°39' W 076°35'2 3.3
2017-Oct-17 01:30N 34°40' W 076°36'2 3.4
2017-Oct-17 01:00N 34°40' W 076°38'1 2.3
2017-Oct-17 00:30N 34°39' W 076°39'1 2.9
2017-Oct-17 00:00N 34°39' W 076°37'2 3.0
2017-Oct-16 23:30N 34°38' W 076°35'2 3.0
2017-Oct-16 23:00N 34°38' W 076°33'2 3.3
2017-Oct-16 22:30N 34°39' W 076°35'2 3.3
2017-Oct-16 22:00N 34°40' W 076°37'1 3.0
2017-Oct-16 21:30N 34°40' W 076°39'1 2.3
2017-Oct-16 21:00N 34°39' W 076°38'2 3.3
2017-Oct-16 20:30N 34°39' W 076°36'1 2.7
2017-Oct-16 20:00N 34°40' W 076°37'1 2.8
2017-Oct-16 19:30N 34°39' W 076°39'1 2.4
2017-Oct-16 19:00N 34°39' W 076°38'2 3.2
2017-Oct-16 18:30N 34°38' W 076°36'1 1.9
2017-Oct-16 18:00N 34°39' W 076°35'2 3.2
2017-Oct-16 17:30N 34°39' W 076°37'1 2.9
2017-Oct-16 17:00N 34°39' W 076°38'2 3.1
2017-Oct-16 16:30N 34°38' W 076°36'1 1.5
2017-Oct-16 16:00N 34°39' W 076°36'2 3.8
2017-Oct-16 15:30N 34°38' W 076°38'2 4.6
2017-Oct-16 15:00N 34°36' W 076°39'4 8.8
2017-Oct-16 14:30N 34°33' W 076°43'  
2017-Oct-14 00:59N 26°26' W 079°52'510.3
2017-Oct-14 00:30N 26°21' W 079°53'5 9.8
2017-Oct-14 00:00N 26°16' W 079°55'6 9.7
2017-Oct-13 23:23N 26°11' W 079°57'3 8.9
2017-Oct-13 23:00N 26°07' W 079°58'4 8.0
2017-Oct-13 22:30N 26°04' W 079°60'4 7.7
2017-Oct-13 22:00N 26°00' W 080°01'510.1
2017-Oct-13 21:30N 25°55' W 080°02'510.2
2017-Oct-13 21:00N 25°50' W 080°02'510.4
2017-Oct-13 20:31N 25°45' W 080°02'510.3
2017-Oct-13 20:00N 25°40' W 080°03'510.5
2017-Oct-13 19:30N 25°34' W 080°03'510.4
2017-Oct-13 19:00N 25°29' W 080°03'510.7
2017-Oct-13 18:30N 25°24' W 080°03'610.3
2017-Oct-13 17:57N 25°18' W 080°04'510.4
2017-Oct-13 17:30N 25°14' W 080°05'510.4
2017-Oct-13 17:00N 25°09' W 080°07'510.5
2017-Oct-13 16:30N 25°04' W 080°10'510.6
2017-Oct-13 16:00N 25°00' W 080°13'510.5
2017-Oct-13 15:30N 24°56' W 080°17'510.2
2017-Oct-13 15:00N 24°52' W 080°21'5 9.9
2017-Oct-13 14:31N 24°49' W 080°25'5 9.7
2017-Oct-13 14:00N 24°46' W 080°29'209 4.8
2017-Oct-11 18:38N 27°41' W 082°35'1 8.2
2017-Oct-11 18:30N 27°41' W 082°34'4 8.4
2017-Oct-11 18:00N 27°45' W 082°32'4 7.3
2017-Oct-11 17:30N 27°48' W 082°29'4 7.4
2017-Oct-11 17:00N 27°51' W 082°27'5 0.3
2017-Oct-10 23:56N 27°56' W 082°27'0 0.0
2017-Oct-10 23:29N 27°56' W 082°27'0 0.0
2017-Oct-10 22:59N 27°56' W 082°27'0 0.0
2017-Oct-10 22:29N 27°56' W 082°27'0 0.0
2017-Oct-10 21:59N 27°56' W 082°27'0 0.1
2017-Oct-10 21:29N 27°56' W 082°27'0 0.0
2017-Oct-10 20:59N 27°56' W 082°27'0 0.0
2017-Oct-10 20:29N 27°56' W 082°27'0 0.0
2017-Oct-10 19:59N 27°56' W 082°27'0 0.0
2017-Oct-10 19:29N 27°56' W 082°27'0 0.0
2017-Oct-10 18:59N 27°56' W 082°27'0 0.0
2017-Oct-10 18:29N 27°56' W 082°27'0 0.0
2017-Oct-10 17:59N 27°56' W 082°27'0 0.0
2017-Oct-10 17:29N 27°56' W 082°27'0 0.0
2017-Oct-10 16:59N 27°56' W 082°27'0 0.0
2017-Oct-10 16:29N 27°56' W 082°27'0 0.0
2017-Oct-10 15:59N 27°56' W 082°27'0 0.0
2017-Oct-10 15:29N 27°56' W 082°27'0 0.5
2017-Oct-10 15:00N 27°57' W 082°27'0 0.0
2017-Oct-10 14:00N 27°57' W 082°27'0 0.0
2017-Oct-10 13:30N 27°57' W 082°27'0 0.0
2017-Oct-10 13:00N 27°57' W 082°27'0 0.0
2017-Oct-10 12:30N 27°57' W 082°27'0 0.0
2017-Oct-10 12:00N 27°57' W 082°27'0 0.0
2017-Oct-10 11:30N 27°57' W 082°27'0 0.0
2017-Oct-10 11:00N 27°57' W 082°27'0 0.0
2017-Oct-10 10:30N 27°57' W 082°27'0 0.0
2017-Oct-10 10:00N 27°57' W 082°27'0 0.0
2017-Oct-10 09:30N 27°57' W 082°27'0 0.0
2017-Oct-10 09:00N 27°57' W 082°27'0 0.0
2017-Oct-10 08:30N 27°57' W 082°27'0 0.0
2017-Oct-10 08:00N 27°57' W 082°27'0 0.0
2017-Oct-10 07:30N 27°57' W 082°27'0 0.0
2017-Oct-10 07:00N 27°57' W 082°27'0 0.0
2017-Oct-10 06:30N 27°57' W 082°27'0 0.0
2017-Oct-10 06:00N 27°57' W 082°27'0 0.0
2017-Oct-10 05:30N 27°57' W 082°27'0 0.0
2017-Oct-10 05:00N 27°57' W 082°27'0 0.0
2017-Oct-10 04:30N 27°57' W 082°27'0 0.0
2017-Oct-10 04:00N 27°57' W 082°27'0 0.0
2017-Oct-10 03:30N 27°57' W 082°27'0 0.0
2017-Oct-10 03:00N 27°57' W 082°27'0 0.0
2017-Oct-10 02:30N 27°57' W 082°27'0 0.0
2017-Oct-10 02:00N 27°57' W 082°27'0 0.0
2017-Oct-10 01:30N 27°57' W 082°27'0 0.0
2017-Oct-10 01:00N 27°57' W 082°27'0 0.0
2017-Oct-10 00:30N 27°57' W 082°27'0 0.0
2017-Oct-10 00:00N 27°57' W 082°27'0 0.0
2017-Oct-09 23:30N 27°57' W 082°27'  

Dump ship's entire track history